Impacts TAF Board
For situational awareness. Not to be used for flight planning purposes.
IDs:

KPHX - Phoenix/Sky Harbor, AZ, US

Issued at 0207 UTC 10 Dec 2018
Updated at 0407 UTC 10 Dec 2018
Potential Impact None Slight Moderate High
Time<<10/17Z 10/18Z 10/19Z 10/20Z 10/21Z 10/22Z 10/23Z 11/00Z 11/01Z 11/02Z 11/03Z 11/04Z 11/05Z>>
Type PRVL PRVL
  [TEMP]  
PRVL
  [TEMP]  
PRVL
  [TEMP]  
PRVL
  [TEMP]  
PRVL PRVL PRVL PRVL PRVL PRVL PRVL PRVL
VIS >6 >6 >6 >6 >6 >6 >6 >6 >6 >6 >6 >6 >6
CIG 200 200
  [180]  
200
  [180]  
200
  [180]  
200
  [180]  
200 200 200 200 200 200 200 200
Cover BKN BKN
  [BKN]  
BKN
  [BKN]  
BKN
  [BKN]  
BKN
  [BKN]  
BKN BKN BKN BKN BKN BKN BKN BKN
FltCat VFR VFR
  [VFR]  
VFR
  [VFR]  
VFR
  [VFR]  
VFR
  [VFR]  
VFR VFR VFR VFR VFR VFR VFR VFR
WX -- --
  [--]  
--
  [--]  
--
  [--]  
--
  [--]  
-- -- -- -- -- -- -- --
WDir 90 90
[90]
90
[90]
90
[90]
90
[90]
90 90 90 90 90 90 90 90
WSpd 4 4
  [8]  
4
  [8]  
4
  [8]  
4
  [8]  
4 4 4 4 4 4 4 4
WGst -- --
  [15]  
--
  [15]  
--
  [15]  
--
  [15]  
-- -- -- -- -- -- -- --
Raw TAF
KPHX 100207Z 1002/1106 25005KT P6SM BKN250
  FM100500 09004KT P6SM BKN200
  TEMPO 1018/1022 09008G15KT BKN180


METAR Board
Radar Display
Forecast Discussion
For situational awareness. Not to be used for flight planning purposes.